createdAt,value
2019-02-27T00:01:33.956Z,10.95
2019-02-27T00:04:26.602Z,9.73
2019-02-27T00:07:20.994Z,10.40
2019-02-27T00:10:15.355Z,11.53
2019-02-27T00:13:09.731Z,10.00
2019-02-27T00:16:03.583Z,9.85
2019-02-27T00:19:05.542Z,10.05
2019-02-27T00:21:59.018Z,9.65
2019-02-27T00:24:54.061Z,10.80
2019-02-27T00:27:49.313Z,11.80
2019-02-27T00:30:48.727Z,11.18
2019-02-27T00:33:44.004Z,8.35
2019-02-27T00:36:36.709Z,8.80
2019-02-27T00:39:31.341Z,10.03
2019-02-27T00:42:33.100Z,11.70
2019-02-27T00:45:21.672Z,9.80
2019-02-27T00:48:14.997Z,10.85
2019-02-27T00:51:09.666Z,10.10
2019-02-27T00:54:02.364Z,9.53
2019-02-27T00:56:59.895Z,7.78
2019-02-27T00:59:53.788Z,11.22
2019-02-27T01:02:53.494Z,10.10
2019-02-27T01:05:45.783Z,11.22
2019-02-27T01:08:39.552Z,12.95
2019-02-27T01:11:33.399Z,10.40
2019-02-27T01:14:26.130Z,11.40
2019-02-27T01:17:24.904Z,10.95
2019-02-27T01:20:18.805Z,10.70
2019-02-27T01:23:12.587Z,14.30
2019-02-27T01:26:06.376Z,12.82
2019-02-27T01:29:02.781Z,11.22
2019-02-27T01:31:57.673Z,11.38
2019-02-27T01:34:54.907Z,13.15
2019-02-27T01:38:00.197Z,13.15
2019-02-27T01:40:55.183Z,11.05
2019-02-27T01:43:49.240Z,13.85
2019-02-27T01:46:42.992Z,11.78
2019-02-27T01:49:37.167Z,13.88
2019-02-27T01:52:33.955Z,14.80
2019-02-27T01:55:25.355Z,15.13
2019-02-27T02:01:12.922Z,12.37
2019-02-27T02:04:20.011Z,15.88
2019-02-27T02:10:29.788Z,14.33
2019-02-27T02:13:28.850Z,12.58
2019-02-27T02:16:34.426Z,11.78
2019-02-27T02:19:54.165Z,14.30
2019-02-27T02:23:17.764Z,13.05
2019-02-27T02:26:28.883Z,13.05
2019-02-27T02:29:52.982Z,11.57
2019-02-27T02:32:52.076Z,13.50
2019-02-27T02:35:58.454Z,13.40
2019-02-27T02:39:18.425Z,17.12
2019-02-27T02:42:26.592Z,15.25
2019-02-27T02:45:21.557Z,14.73
2019-02-27T02:48:30.985Z,13.85
2019-02-27T02:51:22.090Z,14.73
2019-02-27T02:54:39.250Z,15.88
2019-02-27T02:58:04.307Z,16.17
2019-02-27T03:01:05.491Z,17.45
2019-02-27T03:04:23.301Z,18.85
2019-02-27T03:07:45.911Z,19.95
2019-02-27T03:11:09.968Z,21.30
2019-02-27T03:14:17.573Z,21.65
2019-02-27T03:17:31.366Z,22.00
2019-02-27T03:20:43.534Z,18.15
2019-02-27T03:23:52.050Z,19.98
2019-02-27T03:27:06.194Z,21.27
2019-02-27T03:30:36.313Z,19.50
2019-02-27T03:33:29.760Z,22.00
2019-02-27T03:36:36.015Z,21.48
2019-02-27T03:40:10.662Z,19.73
2019-02-27T03:43:11.487Z,21.77
2019-02-27T03:46:10.987Z,24.07
2019-02-27T03:49:28.442Z,19.60
2019-02-27T03:52:41.228Z,19.17
2019-02-27T03:55:43.058Z,14.80
2019-02-27T03:58:49.893Z,17.90
2019-02-27T04:02:05.872Z,18.32
2019-02-27T04:05:06.936Z,20.43
2019-02-27T04:08:12.680Z,21.82
2019-02-27T04:11:16.054Z,20.00
2019-02-27T04:18:17.504Z,18.73
2019-02-27T04:21:57.735Z,19.42
2019-02-27T04:24:30.549Z,16.85
2019-02-27T04:27:28.184Z,20.17
2019-02-27T04:30:26.632Z,18.75
2019-02-27T04:33:31.606Z,16.15
2019-02-27T04:36:33.432Z,18.42
2019-02-27T04:39:26.545Z,19.62
2019-02-27T04:42:25.737Z,19.32
2019-02-27T04:45:23.782Z,19.60
2019-02-27T04:48:24.117Z,18.65
2019-02-27T04:51:18.976Z,20.40
2019-02-27T04:54:18.272Z,20.12
2019-02-27T04:57:18.232Z,18.00
2019-02-27T05:00:17.060Z,19.12
2019-02-27T05:03:13.361Z,19.05
2019-02-27T05:06:08.080Z,17.92
2019-02-27T05:09:08.797Z,18.65
2019-02-27T05:12:06.635Z,22.10
2019-02-27T05:15:04.201Z,19.27
2019-02-27T05:17:58.813Z,19.57
2019-02-27T05:20:55.890Z,20.17
2019-02-27T05:23:49.706Z,19.52
2019-02-27T05:26:50.377Z,19.82
2019-02-27T05:29:44.667Z,23.12
2019-02-27T05:32:43.187Z,24.23
2019-02-27T05:35:57.870Z,21.97
2019-02-27T05:38:53.468Z,20.15
2019-02-27T05:41:50.287Z,20.77
2019-02-27T05:44:46.172Z,19.05
2019-02-27T05:47:44.668Z,16.95
2019-02-27T05:51:02.093Z,20.72
2019-02-27T05:53:51.002Z,19.85
2019-02-27T05:56:49.622Z,21.82
2019-02-27T05:59:45.292Z,18.90
2019-02-27T06:02:45.055Z,18.00
2019-02-27T06:08:37.999Z,20.92
2019-02-27T06:11:33.068Z,26.30
2019-02-27T06:14:25.893Z,27.15
2019-02-27T06:17:26.239Z,23.75
2019-02-27T06:20:24.639Z,27.58
2019-02-27T06:23:20.330Z,26.57
2019-02-27T06:26:13.997Z,26.75
2019-02-27T06:29:15.531Z,24.57
2019-02-27T06:32:12.172Z,26.95
2019-02-27T06:35:08.639Z,27.93
2019-02-27T06:38:05.923Z,27.32
2019-02-27T06:41:04.564Z,31.40
2019-02-27T06:44:03.115Z,29.05
2019-02-27T06:46:59.887Z,30.27
2019-02-27T06:49:56.757Z,33.60
2019-02-27T06:52:49.916Z,30.05
2019-02-27T06:55:43.895Z,33.48
2019-02-27T06:58:37.199Z,36.90
2019-02-27T07:01:31.118Z,33.80
2019-02-27T07:04:26.842Z,33.45
2019-02-27T07:07:20.053Z,35.78
2019-02-27T07:13:11.607Z,31.50
2019-02-27T07:16:05.400Z,35.45
2019-02-27T07:19:07.484Z,34.55
2019-02-27T07:22:06.233Z,28.45
2019-02-27T07:24:59.249Z,27.45
2019-02-27T07:27:53.998Z,31.12
2019-02-27T07:31:00.882Z,26.23
2019-02-27T07:33:56.658Z,35.92
2019-02-27T07:36:51.493Z,36.77
2019-02-27T07:39:45.525Z,33.67
2019-02-27T07:42:42.118Z,29.02
2019-02-27T07:45:42.687Z,26.27
2019-02-27T07:48:33.818Z,33.67
2019-02-27T07:51:28.431Z,30.00
2019-02-27T07:54:28.831Z,27.52
2019-02-27T07:57:19.380Z,29.95
2019-02-27T08:00:23.484Z,26.27
2019-02-27T08:03:19.445Z,24.18
2019-02-27T08:06:13.187Z,32.95
2019-02-27T08:09:07.869Z,27.60
2019-02-27T08:12:01.826Z,26.05
2019-02-27T08:14:56.231Z,26.57
2019-02-27T08:17:50.444Z,27.75
2019-02-27T08:20:48.014Z,29.02
2019-02-27T08:23:43.082Z,39.70
2019-02-27T08:26:37.050Z,26.80
2019-02-27T08:29:30.571Z,34.73
2019-02-27T08:32:25.495Z,23.10
2019-02-27T08:35:18.644Z,25.82
2019-02-27T08:38:15.345Z,21.50
2019-02-27T08:41:08.901Z,23.42
2019-02-27T08:44:03.295Z,26.35
2019-02-27T08:47:04.313Z,39.35
2019-02-27T08:49:59.143Z,20.15
2019-02-27T08:52:52.555Z,23.42
2019-02-27T08:55:46.277Z,18.98
2019-02-27T08:58:39.883Z,21.60
2019-02-27T09:01:33.272Z,18.00
2019-02-27T09:04:27.020Z,24.98
2019-02-27T09:07:20.074Z,6.45
2019-02-27T09:10:15.327Z,16.62
2019-02-27T09:13:08.223Z,14.98
2019-02-27T09:16:23.031Z,19.45
2019-02-27T09:19:15.803Z,15.98
2019-02-27T09:22:19.482Z,17.70
2019-02-27T09:25:13.299Z,14.18
2019-02-27T09:28:09.446Z,19.90
2019-02-27T09:31:04.296Z,15.83
2019-02-27T09:34:04.963Z,19.07
2019-02-27T09:40:39.752Z,13.30
2019-02-27T09:43:35.976Z,16.40
2019-02-27T09:46:43.305Z,18.80
2019-02-27T09:49:30.741Z,23.40
2019-02-27T09:52:24.434Z,25.25
2019-02-27T09:55:20.869Z,28.92
2019-02-27T09:58:16.631Z,19.92
2019-02-27T10:03:19.848Z,21.77
2019-02-27T10:05:52.180Z,17.30
2019-02-27T10:08:28.910Z,20.25
2019-02-27T10:11:02.990Z,21.62
2019-02-27T10:13:41.355Z,20.60
2019-02-27T10:16:56.320Z,22.42
2019-02-27T10:19:06.031Z,23.10
2019-02-27T10:21:45.422Z,23.77
2019-02-27T10:24:18.322Z,26.00
2019-02-27T10:26:53.548Z,26.00
2019-02-27T10:29:27.515Z,24.27
2019-02-27T10:32:01.381Z,21.25
2019-02-27T10:34:36.261Z,21.77
2019-02-27T10:37:12.856Z,27.67
2019-02-27T10:39:48.801Z,31.52
2019-02-27T10:42:25.725Z,27.42
2019-02-27T10:45:01.661Z,25.45
2019-02-27T10:47:39.755Z,24.92
2019-02-27T10:50:12.960Z,28.65
2019-02-27T10:52:50.090Z,30.40
2019-02-27T10:55:26.999Z,28.52
2019-02-27T10:58:02.791Z,33.15
2019-02-27T11:00:40.373Z,32.48
2019-02-27T11:03:16.068Z,33.63
2019-02-27T11:05:54.094Z,35.78
2019-02-27T11:08:29.647Z,33.58
2019-02-27T11:11:04.833Z,31.97
2019-02-27T11:13:38.718Z,32.73
2019-02-27T11:16:12.537Z,30.55
2019-02-27T11:18:46.351Z,31.10
2019-02-27T11:21:20.515Z,33.58
2019-02-27T11:23:55.833Z,31.95
2019-02-27T11:26:32.967Z,34.23
2019-02-27T11:29:08.044Z,34.55
2019-02-27T11:31:42.318Z,37.63
2019-02-27T11:34:18.508Z,38.05
2019-02-27T11:36:53.711Z,38.73
2019-02-27T11:39:30.510Z,36.35
2019-02-27T11:42:03.125Z,39.63
2019-02-27T11:44:39.879Z,37.38
2019-02-27T11:47:13.727Z,38.65
2019-02-27T11:49:47.901Z,36.80
2019-02-27T11:52:21.404Z,35.45
2019-02-27T11:54:55.679Z,36.68
2019-02-27T11:57:30.585Z,35.60
2019-02-27T12:00:04.987Z,38.20
2019-02-27T12:02:40.589Z,36.58
2019-02-27T12:05:16.036Z,34.78
2019-02-27T12:07:51.913Z,33.90
2019-02-27T12:10:28.471Z,35.98
2019-02-27T12:13:02.096Z,31.60
2019-02-27T12:15:36.287Z,35.63
2019-02-27T12:18:11.798Z,35.08
2019-02-27T12:20:46.058Z,32.75
2019-02-27T12:23:20.732Z,40.12
2019-02-27T12:25:55.825Z,37.48
2019-02-27T12:28:29.458Z,39.88
2019-02-27T12:31:03.363Z,35.60
2019-02-27T12:33:44.550Z,34.45
2019-02-27T12:36:18.670Z,37.33
2019-02-27T12:38:51.757Z,40.73
2019-02-27T12:41:26.036Z,44.10
2019-02-27T12:43:59.768Z,41.92
2019-02-27T12:46:37.001Z,39.85
2019-02-27T12:49:11.136Z,40.15
2019-02-27T12:51:45.151Z,44.50
2019-02-27T12:54:18.681Z,43.30
2019-02-27T12:56:52.640Z,41.70
2019-02-27T12:59:26.308Z,47.48
2019-02-27T13:02:08.105Z,42.90
2019-02-27T13:04:35.715Z,41.13
2019-02-27T13:07:10.728Z,34.38
2019-02-27T13:09:46.969Z,40.23
2019-02-27T13:12:24.004Z,39.18
2019-02-27T13:14:59.466Z,36.08
2019-02-27T13:17:33.100Z,36.83
2019-02-27T13:20:09.076Z,37.65
2019-02-27T13:22:44.488Z,34.03
2019-02-27T13:25:21.312Z,38.75
2019-02-27T13:27:53.487Z,35.15
2019-02-27T13:30:29.440Z,38.40
2019-02-27T13:33:03.970Z,35.73
2019-02-27T13:35:38.811Z,37.00
2019-02-27T13:38:17.467Z,41.88
2019-02-27T13:40:50.083Z,36.30
2019-02-27T13:43:27.130Z,39.60
2019-02-27T13:46:04.480Z,34.75
2019-02-27T13:48:44.171Z,37.13
2019-02-27T13:51:29.623Z,38.05
2019-02-27T13:54:06.559Z,33.40
2019-02-27T13:56:55.068Z,32.48
2019-02-27T13:59:35.852Z,39.35
2019-02-27T14:02:11.350Z,37.08
2019-02-27T14:04:53.854Z,35.05
2019-02-27T14:07:29.817Z,33.25
2019-02-27T14:10:17.156Z,34.75
2019-02-27T14:12:54.628Z,30.48
2019-02-27T14:15:44.629Z,31.25
2019-02-27T14:18:25.462Z,29.55
2019-02-27T14:21:01.764Z,29.12
2019-02-27T14:29:09.221Z,29.10
2019-02-27T14:31:50.601Z,27.87
2019-02-27T14:34:40.261Z,28.50
2019-02-27T14:37:21.932Z,25.82
2019-02-27T14:40:01.037Z,28.75
2019-02-27T14:42:35.946Z,28.80
2019-02-27T14:45:30.083Z,29.87
2019-02-27T14:51:12.952Z,28.92
2019-02-27T14:56:54.777Z,29.60
2019-02-27T14:59:36.235Z,29.05
2019-02-27T15:05:24.433Z,29.95
2019-02-27T15:08:09.485Z,29.45
2019-02-27T15:10:51.239Z,29.20
2019-02-27T15:13:29.368Z,32.23
2019-02-27T15:16:07.483Z,29.05
2019-02-27T15:18:59.261Z,29.15
2019-02-27T15:21:47.362Z,32.03
2019-02-27T15:24:26.309Z,36.23
2019-02-27T15:27:19.527Z,32.25
2019-02-27T15:30:14.169Z,28.98
2019-02-27T15:32:54.303Z,34.10
2019-02-27T15:35:34.078Z,39.63
2019-02-27T15:38:22.687Z,38.63
2019-02-27T15:41:02.605Z,42.45
2019-02-27T15:43:40.759Z,36.60
2019-02-27T15:46:26.965Z,38.53
2019-02-27T15:49:19.260Z,33.05
2019-02-27T15:52:08.623Z,36.40
2019-02-27T16:06:53.837Z,36.83
2019-02-27T16:12:37.019Z,36.58
2019-02-27T16:15:20.890Z,34.45
2019-02-27T16:21:12.055Z,39.20
2019-02-27T16:23:59.811Z,37.48
2019-02-27T16:29:48.984Z,33.60
2019-02-27T16:38:43.031Z,38.08
2019-02-27T16:41:29.031Z,38.55
2019-02-27T16:44:22.792Z,35.60
2019-02-27T16:47:19.599Z,32.23
2019-02-27T16:49:57.946Z,36.17
2019-02-27T16:52:39.104Z,33.70
2019-02-27T17:04:18.377Z,37.33
2019-02-27T17:07:05.473Z,39.45
2019-02-27T17:09:52.620Z,36.53
2019-02-27T17:12:43.263Z,35.33
2019-02-27T17:15:23.256Z,33.40
2019-02-27T17:18:03.814Z,33.60
2019-02-27T17:20:46.040Z,38.23
